createdAt,value
2019-05-22T00:01:43.217Z,26.17
2019-05-22T00:04:15.147Z,26.97
2019-05-22T00:06:46.008Z,28.20
2019-05-22T00:09:21.623Z,29.47
2019-05-22T00:11:52.682Z,28.13
2019-05-22T00:14:24.686Z,29.07
2019-05-22T00:16:56.432Z,29.47
2019-05-22T00:19:26.717Z,29.63
2019-05-22T00:22:01.090Z,32.80
2019-05-22T00:24:32.373Z,33.97
2019-05-22T00:27:04.570Z,37.07
2019-05-22T00:29:35.616Z,38.63
2019-05-22T00:32:07.523Z,39.23
2019-05-22T00:34:38.135Z,41.80
2019-05-22T00:37:09.546Z,42.10
2019-05-22T00:39:40.547Z,41.77
2019-05-22T00:42:11.485Z,42.50
2019-05-22T00:44:43.407Z,40.77
2019-05-22T00:47:14.369Z,40.90
2019-05-22T00:49:46.975Z,41.27
2019-05-22T00:52:22.148Z,40.73
2019-05-22T00:54:55.252Z,41.30
2019-05-22T00:57:37.100Z,43.60
2019-05-22T01:00:10.181Z,41.50
2019-05-22T01:02:41.209Z,44.00
2019-05-22T01:05:11.509Z,41.93
2019-05-22T01:07:42.954Z,42.70
2019-05-22T01:10:14.854Z,38.67
2019-05-22T01:12:46.827Z,35.70
2019-05-22T01:15:21.739Z,35.33
2019-05-22T01:17:52.070Z,35.67
2019-05-22T01:20:24.376Z,35.40
2019-05-22T01:22:59.203Z,34.57
2019-05-22T01:25:31.333Z,35.63
2019-05-22T01:28:02.078Z,34.33
2019-05-22T01:30:36.693Z,33.53
2019-05-22T01:33:11.174Z,32.70
2019-05-22T01:36:00.166Z,33.13
2019-05-22T01:38:31.375Z,33.40
2019-05-22T01:41:10.514Z,32.13
2019-05-22T01:43:42.150Z,30.83
2019-05-22T01:46:12.611Z,34.13
2019-05-22T01:48:43.034Z,33.83
2019-05-22T01:51:14.588Z,33.20
2019-05-22T01:53:46.527Z,33.80
2019-05-22T01:56:18.430Z,32.13
2019-05-22T01:58:49.988Z,32.47
2019-05-22T02:01:22.198Z,31.77
2019-05-22T02:03:59.848Z,30.67
2019-05-22T02:06:30.132Z,29.97
2019-05-22T02:09:09.829Z,30.47
2019-05-22T02:11:41.186Z,29.10
2019-05-22T02:14:15.479Z,30.20
2019-05-22T02:16:56.028Z,28.17
2019-05-22T02:19:18.360Z,26.17
2019-05-22T02:21:49.362Z,26.63
2019-05-22T02:24:20.299Z,26.40
2019-05-22T02:26:51.381Z,26.83
2019-05-22T02:29:22.305Z,25.13
2019-05-22T02:31:55.633Z,25.43
2019-05-22T02:34:26.360Z,24.13
2019-05-22T02:36:57.895Z,23.83
2019-05-22T02:39:35.331Z,24.13
2019-05-22T02:42:15.412Z,23.63
2019-05-22T02:44:47.395Z,23.23
2019-05-22T02:47:21.137Z,21.60
2019-05-22T02:49:51.718Z,21.47
2019-05-22T02:52:23.167Z,20.87
2019-05-22T02:54:53.492Z,20.27
2019-05-22T02:57:23.833Z,19.93
2019-05-22T02:59:54.129Z,19.63
2019-05-22T03:02:24.459Z,18.10
2019-05-22T03:05:07.535Z,17.77
2019-05-22T03:07:39.615Z,16.30
2019-05-22T03:10:12.859Z,16.33
2019-05-22T03:12:43.186Z,15.53
2019-05-22T03:15:16.153Z,16.27
2019-05-22T03:17:48.024Z,15.07
2019-05-22T03:20:23.348Z,14.93
2019-05-22T03:23:27.782Z,14.60
2019-05-22T03:25:58.420Z,13.03
2019-05-22T03:28:28.686Z,12.97
2019-05-22T03:30:59.632Z,13.30
2019-05-22T03:33:29.936Z,12.13
2019-05-22T03:36:07.768Z,12.30
2019-05-22T03:38:40.367Z,12.23
2019-05-22T03:41:12.204Z,10.60
2019-05-22T03:43:45.123Z,10.63
2019-05-22T03:46:33.417Z,10.27
2019-05-22T03:49:04.962Z,10.00
2019-05-22T03:51:36.323Z,9.67
2019-05-22T03:54:07.246Z,9.73
2019-05-22T03:56:41.459Z,8.60
2019-05-22T03:59:12.446Z,7.97
2019-05-22T04:01:45.192Z,7.83
2019-05-22T04:04:20.422Z,7.53
2019-05-22T04:06:52.350Z,7.37
2019-05-22T04:09:24.240Z,7.50
2019-05-22T04:11:55.113Z,8.63
2019-05-22T04:14:30.379Z,8.37
2019-05-22T04:17:00.719Z,7.53
2019-05-22T04:19:47.668Z,11.43
2019-05-22T04:22:03.108Z,15.37
2019-05-22T04:24:33.367Z,15.63
2019-05-22T04:27:05.298Z,16.10
2019-05-22T04:29:37.291Z,19.03
2019-05-22T04:32:15.350Z,19.17
2019-05-22T04:34:46.523Z,19.67
2019-05-22T04:37:17.522Z,18.90
2019-05-22T04:39:49.482Z,18.43
2019-05-22T04:42:20.743Z,18.47
2019-05-22T04:45:15.406Z,18.70
2019-05-22T04:48:03.693Z,19.17
2019-05-22T04:50:33.978Z,18.63
2019-05-22T04:53:04.422Z,19.73
2019-05-22T04:55:34.751Z,21.33
2019-05-22T04:58:06.948Z,21.37
2019-05-22T05:00:37.488Z,24.10
2019-05-22T05:03:08.960Z,24.70
2019-05-22T05:05:43.290Z,22.70
2019-05-22T05:08:15.244Z,24.13
2019-05-22T05:10:48.602Z,23.33
2019-05-22T05:13:19.288Z,22.27
2019-05-22T05:15:49.587Z,24.33
2019-05-22T05:18:19.883Z,24.37
2019-05-22T05:20:50.152Z,27.10
2019-05-22T05:23:20.442Z,24.63
2019-05-22T05:25:50.736Z,25.07
2019-05-22T05:28:21.764Z,22.97
2019-05-22T05:30:52.066Z,18.73
2019-05-22T05:33:22.685Z,18.10
2019-05-22T05:35:53.034Z,16.47
2019-05-22T05:38:36.535Z,16.73
2019-05-22T05:41:07.548Z,15.73
2019-05-22T05:43:38.012Z,14.03
2019-05-22T05:46:08.269Z,14.20
2019-05-22T05:48:38.731Z,13.40
2019-05-22T05:51:14.466Z,14.13
2019-05-22T05:54:11.089Z,13.00
2019-05-22T05:56:43.394Z,13.73
2019-05-22T05:59:14.251Z,14.10
2019-05-22T06:01:46.365Z,14.33
2019-05-22T06:04:33.580Z,14.50
2019-05-22T06:07:00.830Z,15.70
2019-05-22T06:09:31.723Z,15.63
2019-05-22T06:14:21.284Z,14.63
2019-05-22T06:14:36.789Z,15.13
2019-05-22T06:18:04.298Z,14.03
2019-05-22T06:20:35.257Z,15.20
2019-05-22T06:23:26.457Z,16.10
2019-05-22T06:25:58.336Z,15.97
2019-05-22T06:28:31.776Z,16.93
2019-05-22T06:31:04.298Z,16.37
2019-05-22T06:33:36.117Z,15.53
2019-05-22T06:36:13.016Z,17.03
2019-05-22T06:38:57.458Z,16.97
2019-05-22T06:41:29.630Z,15.87
2019-05-22T06:44:30.655Z,15.60
2019-05-22T06:47:01.399Z,15.53
2019-05-22T06:49:37.632Z,15.97
2019-05-22T06:52:08.337Z,15.70
2019-05-22T06:54:39.110Z,14.67
2019-05-22T06:57:11.767Z,15.33
2019-05-22T06:59:43.572Z,15.33
2019-05-22T07:02:15.376Z,14.70
2019-05-22T07:04:46.245Z,13.90
2019-05-22T07:07:17.451Z,14.17
2019-05-22T07:09:48.551Z,14.23
2019-05-22T07:12:20.724Z,13.77
2019-05-22T07:15:08.431Z,13.37
2019-05-22T07:17:39.799Z,14.20
2019-05-22T07:20:11.354Z,13.30
2019-05-22T07:22:41.783Z,13.83
2019-05-22T07:25:12.069Z,13.27
2019-05-22T07:27:42.321Z,13.73
2019-05-22T07:30:12.990Z,13.97
2019-05-22T07:32:43.288Z,14.73
2019-05-22T07:35:13.546Z,15.30
2019-05-22T07:37:45.380Z,15.63
2019-05-22T07:40:15.715Z,16.00
2019-05-22T07:42:46.008Z,13.87
2019-05-22T07:45:16.297Z,14.03
2019-05-22T07:47:46.663Z,14.13
2019-05-22T07:50:16.957Z,13.73
2019-05-22T07:52:47.318Z,10.97
2019-05-22T07:55:17.842Z,11.57
2019-05-22T07:57:50.345Z,9.77
2019-05-22T08:00:27.974Z,11.37
2019-05-22T08:02:58.371Z,10.07
2019-05-22T08:05:29.213Z,9.90
2019-05-22T08:07:59.900Z,10.57
2019-05-22T08:10:30.664Z,10.40
2019-05-22T08:13:01.199Z,9.30
2019-05-22T08:15:31.505Z,8.87
2019-05-22T08:18:01.962Z,8.43
2019-05-22T08:20:32.523Z,8.03
2019-05-22T08:23:03.053Z,8.00
2019-05-22T08:25:35.744Z,8.00
2019-05-22T08:28:06.301Z,7.60
2019-05-22T08:30:36.589Z,8.37
2019-05-22T08:33:09.800Z,9.07
2019-05-22T08:35:40.205Z,8.57
2019-05-22T08:38:10.893Z,8.23
2019-05-22T08:40:41.558Z,7.67
2019-05-22T08:43:12.113Z,7.27
2019-05-22T08:45:42.336Z,6.93
2019-05-22T08:48:13.494Z,6.70
2019-05-22T08:50:45.435Z,6.90
2019-05-22T08:53:16.727Z,5.97
2019-05-22T08:55:47.077Z,6.57
2019-05-22T08:58:17.400Z,6.00
2019-05-22T09:00:47.988Z,5.90
2019-05-22T09:03:18.273Z,5.80
2019-05-22T09:05:48.521Z,5.50
2019-05-22T09:08:18.799Z,4.57
2019-05-22T09:10:49.427Z,5.33
2019-05-22T09:13:19.690Z,4.60
2019-05-22T09:15:50.642Z,4.73
2019-05-22T09:18:21.190Z,4.63
2019-05-22T09:20:52.203Z,4.67
2019-05-22T09:23:22.501Z,4.70
2019-05-22T09:25:53.006Z,3.80
2019-05-22T09:28:23.273Z,4.27
2019-05-22T09:30:53.881Z,4.47
2019-05-22T09:33:24.119Z,3.50
2019-05-22T09:35:54.370Z,4.30
2019-05-22T09:38:24.632Z,4.03
2019-05-22T09:40:54.917Z,4.53
2019-05-22T09:43:25.175Z,4.10
2019-05-22T09:45:55.477Z,3.57
2019-05-22T09:48:25.753Z,3.80
2019-05-22T09:50:56.027Z,4.00
2019-05-22T09:53:27.249Z,3.80
2019-05-22T09:55:57.869Z,3.90
2019-05-22T09:58:28.229Z,4.20
2019-05-22T10:00:58.747Z,4.00
2019-05-22T10:03:29.208Z,4.23
2019-05-22T10:05:59.578Z,4.10
2019-05-22T10:08:30.024Z,3.80
2019-05-22T10:11:00.876Z,3.97
2019-05-22T10:13:32.221Z,3.80
2019-05-22T10:16:02.664Z,4.00
2019-05-22T10:18:33.177Z,4.17
2019-05-22T10:21:03.459Z,4.10
2019-05-22T10:23:33.977Z,4.40
2019-05-22T10:26:04.610Z,4.37
2019-05-22T10:28:35.003Z,4.80
2019-05-22T10:31:07.962Z,4.33
2019-05-22T10:33:39.468Z,5.27
2019-05-22T10:36:09.767Z,5.27
2019-05-22T10:38:40.078Z,5.20
2019-05-22T10:41:10.960Z,5.60
2019-05-22T10:43:41.198Z,5.60
2019-05-22T10:46:11.500Z,5.67
2019-05-22T10:48:41.767Z,5.93
2019-05-22T10:51:12.698Z,5.63
2019-05-22T10:53:42.953Z,6.87
2019-05-22T10:56:13.308Z,6.93
2019-05-22T10:58:43.536Z,6.77
2019-05-22T11:01:14.168Z,6.60
2019-05-22T11:03:44.458Z,7.00
2019-05-22T11:06:14.752Z,7.70
2019-05-22T11:08:45.035Z,6.73
2019-05-22T11:11:16.990Z,6.60
2019-05-22T11:14:00.671Z,7.40
2019-05-22T11:16:20.037Z,7.97
2019-05-22T11:18:50.360Z,8.00
2019-05-22T11:21:20.780Z,8.67
2019-05-22T11:23:53.023Z,8.47
2019-05-22T11:26:23.080Z,7.93
2019-05-22T11:28:53.494Z,9.43
2019-05-22T11:31:23.736Z,8.87
2019-05-22T11:33:54.327Z,8.77
2019-05-22T11:36:24.898Z,9.00
2019-05-22T11:38:55.293Z,8.20
2019-05-22T11:41:25.604Z,8.70
2019-05-22T11:43:55.937Z,9.07
2019-05-22T11:46:26.787Z,8.90
2019-05-22T11:48:57.590Z,8.63
2019-05-22T11:51:27.854Z,9.37
2019-05-22T11:54:08.598Z,9.20
2019-05-22T11:56:30.978Z,9.73
2019-05-22T11:59:01.797Z,10.00
2019-05-22T12:01:32.338Z,10.03
2019-05-22T12:04:03.540Z,10.97
2019-05-22T12:06:33.873Z,10.03
2019-05-22T12:09:04.881Z,10.70
2019-05-22T12:11:35.136Z,10.60
2019-05-22T12:14:06.146Z,11.47
2019-05-22T12:16:37.441Z,10.37
2019-05-22T12:19:07.978Z,10.40
2019-05-22T12:21:38.824Z,10.90
2019-05-22T12:24:26.155Z,10.93
2019-05-22T12:26:41.516Z,11.43
2019-05-22T12:29:11.809Z,11.27
2019-05-22T12:31:42.174Z,10.87
2019-05-22T12:34:12.621Z,12.33
2019-05-22T12:36:43.024Z,12.57
2019-05-22T12:39:13.482Z,12.97
2019-05-22T12:41:43.748Z,13.27
2019-05-22T12:44:14.757Z,12.83
2019-05-22T12:46:45.793Z,13.20
2019-05-22T12:49:16.238Z,14.03
2019-05-22T12:51:47.797Z,14.00
2019-05-22T12:54:18.793Z,14.57
2019-05-22T12:56:49.152Z,14.23
2019-05-22T12:59:20.329Z,14.90
2019-05-22T13:01:52.010Z,14.80
2019-05-22T13:04:23.542Z,15.47
2019-05-22T13:06:54.067Z,17.37
2019-05-22T13:09:24.396Z,16.87
2019-05-22T13:11:55.991Z,15.43
2019-05-22T13:14:26.310Z,17.03
2019-05-22T13:16:57.205Z,16.50
2019-05-22T13:19:28.737Z,16.87
2019-05-22T13:22:00.588Z,16.10
2019-05-22T13:24:30.877Z,16.40
2019-05-22T13:27:01.203Z,15.47
2019-05-22T13:29:31.550Z,15.90
2019-05-22T13:32:01.850Z,16.83
2019-05-22T13:34:32.715Z,15.83
2019-05-22T13:37:03.715Z,17.03
2019-05-22T13:39:34.258Z,16.83
2019-05-22T13:42:04.662Z,17.27
2019-05-22T13:44:35.192Z,16.87
2019-05-22T13:47:07.410Z,16.80
2019-05-22T13:49:39.360Z,17.90
2019-05-22T13:52:09.673Z,16.70
2019-05-22T13:54:40.644Z,16.23
2019-05-22T13:57:11.322Z,16.80
2019-05-22T13:59:41.773Z,15.93
2019-05-22T14:02:12.292Z,16.13
2019-05-22T14:04:42.665Z,17.13
2019-05-22T14:07:13.406Z,16.30
2019-05-22T14:09:44.167Z,17.20
2019-05-22T14:12:14.473Z,16.53
2019-05-22T14:14:44.783Z,15.97
2019-05-22T14:17:16.135Z,16.23
2019-05-22T14:19:46.494Z,17.60
2019-05-22T14:22:17.079Z,16.70
2019-05-22T14:24:47.376Z,16.80
2019-05-22T14:27:17.752Z,16.73
2019-05-22T14:29:48.047Z,16.83
2019-05-22T14:32:18.325Z,17.80
2019-05-22T14:34:48.576Z,18.20
2019-05-22T14:37:18.871Z,18.93
2019-05-22T14:39:49.201Z,17.17
2019-05-22T14:42:19.857Z,18.07
2019-05-22T14:44:50.470Z,18.33
2019-05-22T14:47:20.926Z,17.97
2019-05-22T14:49:51.261Z,17.47
2019-05-22T14:52:21.817Z,17.60
2019-05-22T14:54:52.151Z,17.50
2019-05-22T14:57:22.489Z,16.97
2019-05-22T14:59:52.790Z,16.07
2019-05-22T15:02:23.280Z,17.10
2019-05-22T15:04:53.983Z,17.47
2019-05-22T15:07:24.355Z,16.87
2019-05-22T15:09:54.621Z,16.47
2019-05-22T15:12:25.287Z,17.33
2019-05-22T15:14:55.653Z,16.50
2019-05-22T15:17:32.242Z,16.50
2019-05-22T15:19:58.173Z,16.83
2019-05-22T15:22:28.534Z,16.57
2019-05-22T15:24:58.967Z,16.07
2019-05-22T15:27:29.732Z,15.13
2019-05-22T15:30:00.178Z,15.83
2019-05-22T15:32:30.651Z,15.73
2019-05-22T15:35:00.982Z,15.80
2019-05-22T15:37:31.323Z,16.17
2019-05-22T15:40:02.742Z,14.90
2019-05-22T15:42:39.266Z,14.60
2019-05-22T15:45:16.064Z,14.70
2019-05-22T15:47:56.599Z,15.67
2019-05-22T15:50:26.663Z,15.87
2019-05-22T15:52:57.808Z,15.23
2019-05-22T15:55:30.505Z,14.60
2019-05-22T15:58:00.877Z,15.13
2019-05-22T16:00:35.547Z,15.67
2019-05-22T16:03:22.680Z,15.90
2019-05-22T16:05:54.196Z,15.77
2019-05-22T16:08:24.494Z,15.73
2019-05-22T16:10:59.637Z,15.37
2019-05-22T16:13:28.850Z,16.77
2019-05-22T16:15:59.885Z,16.70
2019-05-22T16:18:31.859Z,14.33
2019-05-22T16:21:04.086Z,15.07
2019-05-22T16:23:36.095Z,14.17
2019-05-22T16:26:08.115Z,13.40
2019-05-22T16:28:39.726Z,15.10
2019-05-22T16:31:10.693Z,13.80
2019-05-22T16:33:42.077Z,16.63
2019-05-22T16:36:12.973Z,13.00
2019-05-22T16:38:43.908Z,13.67
2019-05-22T16:41:14.507Z,14.30
2019-05-22T16:43:49.685Z,13.53
2019-05-22T16:46:17.933Z,14.67
2019-05-22T16:48:49.430Z,14.37
2019-05-22T16:51:20.066Z,13.57
2019-05-22T16:53:54.883Z,12.60
2019-05-22T16:56:26.366Z,12.77
2019-05-22T16:58:56.773Z,13.63
2019-05-22T17:01:27.235Z,12.63
2019-05-22T17:04:02.855Z,12.67
2019-05-22T17:06:33.448Z,13.10
2019-05-22T17:09:05.465Z,13.57
2019-05-22T17:11:35.959Z,12.43
2019-05-22T17:14:06.940Z,12.37
2019-05-22T17:16:39.447Z,11.30
2019-05-22T17:19:25.773Z,10.63
2019-05-22T17:21:41.967Z,10.93
2019-05-22T17:24:13.878Z,10.17
2019-05-22T17:26:44.135Z,11.17
2019-05-22T17:29:14.439Z,10.57
2019-05-22T17:31:44.842Z,10.87
2019-05-22T17:34:35.507Z,10.67
2019-05-22T17:37:11.913Z,10.63
2019-05-22T17:39:44.700Z,10.50
2019-05-22T17:42:16.423Z,9.70
2019-05-22T17:44:50.768Z,9.87
2019-05-22T17:47:21.902Z,10.00
2019-05-22T17:49:52.993Z,8.97
2019-05-22T17:52:23.349Z,8.63
2019-05-22T17:54:53.721Z,8.70
2019-05-22T17:57:24.571Z,8.63
2019-05-22T17:59:55.804Z,8.07
2019-05-22T18:02:27.994Z,7.60
2019-05-22T18:04:58.281Z,7.20
2019-05-22T18:07:28.985Z,8.03
2019-05-22T18:09:59.243Z,7.63
2019-05-22T18:12:30.018Z,8.03
2019-05-22T18:15:01.062Z,7.47
2019-05-22T18:17:31.988Z,7.63
2019-05-22T18:20:02.962Z,7.30
2019-05-22T18:22:33.586Z,6.70
2019-05-22T18:25:04.818Z,7.13
2019-05-22T18:27:35.145Z,6.87
2019-05-22T18:30:07.341Z,6.80
2019-05-22T18:32:40.647Z,6.97
2019-05-22T18:35:12.681Z,6.77
2019-05-22T18:37:42.965Z,6.20
2019-05-22T18:40:13.856Z,6.40
2019-05-22T18:42:44.193Z,6.20
2019-05-22T18:45:14.443Z,6.10
2019-05-22T18:47:44.838Z,6.63
2019-05-22T18:50:15.172Z,6.93
2019-05-22T18:52:47.563Z,6.27
2019-05-22T18:55:18.257Z,5.97
2019-05-22T18:57:48.654Z,5.70
2019-05-22T19:00:22.545Z,6.73
2019-05-22T19:02:53.135Z,6.27
2019-05-22T19:05:26.867Z,6.43
2019-05-22T19:07:57.139Z,6.57
2019-05-22T19:10:27.989Z,6.50
2019-05-22T19:12:58.314Z,6.50
2019-05-22T19:15:28.809Z,5.40
2019-05-22T19:17:59.313Z,5.30
2019-05-22T19:20:29.775Z,5.37
2019-05-22T19:23:01.717Z,5.03
2019-05-22T19:25:32.847Z,5.00
2019-05-22T19:28:03.205Z,4.47
2019-05-22T19:30:33.820Z,4.73
2019-05-22T19:33:04.630Z,4.57
2019-05-22T19:35:34.955Z,4.93
2019-05-22T19:38:06.143Z,5.07
2019-05-22T19:40:36.840Z,4.40
2019-05-22T19:43:07.764Z,5.07
2019-05-22T19:45:38.182Z,4.70
2019-05-22T19:48:08.643Z,3.93
2019-05-22T19:50:38.922Z,4.47
2019-05-22T19:53:18.875Z,4.20
2019-05-22T19:55:42.107Z,4.57
2019-05-22T19:58:13.223Z,4.23
2019-05-22T20:00:44.521Z,4.40
2019-05-22T20:03:15.187Z,4.30
2019-05-22T20:05:45.738Z,3.77
2019-05-22T20:08:16.590Z,3.90
2019-05-22T20:10:46.949Z,4.97
2019-05-22T20:13:17.941Z,4.10
2019-05-22T20:15:48.414Z,4.70
2019-05-22T20:18:18.928Z,3.90
2019-05-22T20:20:49.782Z,4.17
2019-05-22T20:23:34.693Z,4.47
2019-05-22T20:25:52.876Z,4.80
2019-05-22T20:28:23.792Z,4.30
2019-05-22T20:30:54.452Z,4.50
2019-05-22T20:33:27.125Z,4.47
2019-05-22T20:35:57.124Z,4.37
2019-05-22T20:38:27.849Z,3.87
2019-05-22T20:40:58.099Z,3.70
2019-05-22T20:43:29.332Z,4.63
2019-05-22T20:46:00.756Z,4.57
2019-05-22T20:48:31.053Z,4.10
2019-05-22T20:51:03.781Z,3.83
2019-05-22T20:53:52.425Z,3.87
2019-05-22T20:56:07.629Z,3.97
2019-05-22T20:58:39.764Z,3.97
2019-05-22T21:01:12.114Z,3.43
2019-05-22T21:03:44.146Z,3.90
2019-05-22T21:06:15.597Z,3.93
2019-05-22T21:08:46.765Z,4.03
2019-05-22T21:11:17.702Z,3.60
2019-05-22T21:13:47.959Z,3.90
2019-05-22T21:16:18.575Z,3.63
2019-05-22T21:18:50.769Z,3.60
2019-05-22T21:21:23.111Z,3.60
2019-05-22T21:24:07.671Z,3.53
2019-05-22T21:26:32.421Z,4.20
2019-05-22T21:29:02.962Z,4.17
2019-05-22T21:31:33.511Z,3.90
2019-05-22T21:34:03.784Z,4.07
2019-05-22T21:36:34.315Z,4.00
2019-05-22T21:39:07.548Z,3.90
2019-05-22T21:41:37.796Z,4.13
2019-05-22T21:44:08.054Z,4.10
2019-05-22T21:46:38.579Z,4.73
2019-05-22T21:49:10.578Z,4.13
2019-05-22T21:51:41.221Z,4.00
2019-05-22T21:54:12.136Z,3.97
2019-05-22T21:56:42.857Z,3.67
2019-05-22T21:59:13.140Z,3.97
2019-05-22T22:02:03.347Z,3.57
2019-05-22T22:04:51.451Z,3.80
2019-05-22T22:07:40.443Z,4.03
2019-05-22T22:10:10.284Z,3.97
2019-05-22T22:12:42.875Z,3.90
2019-05-22T22:15:15.243Z,4.10
2019-05-22T22:17:47.233Z,3.90
2019-05-22T22:20:19.161Z,3.90
2019-05-22T22:22:49.476Z,4.43
2019-05-22T22:25:19.900Z,4.07
2019-05-22T22:27:50.172Z,4.30
2019-05-22T22:30:27.584Z,4.10
2019-05-22T22:32:58.477Z,4.37
2019-05-22T22:35:29.003Z,3.83
2019-05-22T22:37:59.269Z,3.77
2019-05-22T22:40:30.649Z,3.87
2019-05-22T22:43:03.630Z,4.10
2019-05-22T22:45:40.435Z,4.00
2019-05-22T22:48:13.689Z,3.70
2019-05-22T22:50:45.020Z,3.90
2019-05-22T22:53:15.924Z,4.20
2019-05-22T22:55:47.918Z,4.00
2019-05-22T22:58:19.398Z,4.20
2019-05-22T23:00:51.988Z,3.97
2019-05-22T23:03:24.437Z,3.83
2019-05-22T23:05:54.859Z,4.53
2019-05-22T23:08:31.172Z,4.30
2019-05-22T23:11:01.464Z,4.33
2019-05-22T23:13:31.963Z,4.47
2019-05-22T23:16:02.256Z,4.43
2019-05-22T23:18:47.015Z,4.77
2019-05-22T23:21:18.668Z,4.70
2019-05-22T23:23:47.841Z,4.23
2019-05-22T23:26:19.513Z,4.60
2019-05-22T23:28:49.853Z,4.07
2019-05-22T23:31:20.118Z,4.60
2019-05-22T23:33:51.219Z,4.27
2019-05-22T23:36:21.530Z,3.87
2019-05-22T23:38:52.951Z,4.77
2019-05-22T23:41:24.105Z,4.20
2019-05-22T23:43:54.402Z,4.13
2019-05-22T23:46:25.466Z,4.27
2019-05-22T23:48:55.753Z,4.00
2019-05-22T23:51:26.039Z,4.00
2019-05-22T23:53:58.003Z,3.93
2019-05-22T23:56:28.355Z,3.63
2019-05-22T23:58:58.633Z,3.47
